AGROMETEOROLOŠKI PORTAL
Vinorodna pokrajina

Temelj dobrega kmetovanja.

Pregled podatkov za lokacijo CERKLJE - LETALIŠČE ARSO, meteorološka postaja 112

Pregled senzorjev na lokaciji

ID Ime Zadnja
vrednost
Datum in čas
meritve
(lokalni čas)
Tip
senzorja
6028 Zračni tlak (hPa) 995 hPa 15.4.2024 07:00 ARSO
2639 Sončno sevanje (W/m2) 46 W/m2 15.4.2024 07:00 ARSO
2645 Padavine (mm) 0 mm 15.4.2024 07:00 ARSO
2653 Relativna zračna vlaga (2 m) (% RH) 68 % RH 15.4.2024 07:00 ARSO
5934 Temperatura tal (5 cm) (°C) 0 °C 15.4.2024 07:00 ARSO
5935 Temperatura tal (10 cm) (°C) 0 °C 15.4.2024 07:00 ARSO
5936 Temperatura tal (30 cm) (°C) 16 °C 15.4.2024 07:00 ARSO
2652 Temperatura (2 m) (°C) 12,1 °C 15.4.2024 07:00 ARSO
2657 Smer vetra (2 m) (°) 247 ° 15.4.2024 07:00 ARSO
2658 Hitrost vetra (2 m) (km/h) 6 km/h 15.4.2024 07:00 ARSO

Pregled podatkov zadnjih 24 ur

Zap.
št.
Datum in čas
(lokalni čas)
CERKLJE - LETALIŠČE ARSO
Zračni
tlak
Sončno
sevanje
Padavine Relativna
zračna
vlaga
(2
m)
Temperatura
tal
(5
cm)
Temperatura
tal
(10
cm)
Temperatura
tal
(30
cm)
Temperatura
(2
m)
Smer
vetra
(2
m)
Hitrost
vetra
(2
m)
1 15.4.2024 07:00 994,5 46 0 68 0 0 16 12,1 247 6
2 15.4.2024 06:30 994,7 8 0 66 0 0 16,2 12,3 276 10
3 15.4.2024 06:00 995 2 0 64 0 0 16,3 12,6 247 8
4 15.4.2024 05:30 995,4 2 0 61 0 0 16,5 13,3 265 13
5 15.4.2024 05:00 995,7 2 0 57 0 0 16,7 13,9 257 13
6 15.4.2024 04:30 996 2 0 58 0 0 16,8 14,2 254 15
7 15.4.2024 04:00 996,2 2 0 53 0 0 17 15,5 272 17
8 15.4.2024 03:30 996,3 1 0 53 0 0 17,1 15,8 279 19
9 15.4.2024 03:00 996,4 1 0 52 0 0 17,3 16,1 285 20
10 15.4.2024 02:30 996,8 0 0 55 0 0 17,4 15,6 272 19
11 15.4.2024 02:00 997,3 2 0 63 0 0 17,6 14,4 273 16
12 15.4.2024 01:30 997,6 2 0 61 0 0 17,8 15,1 285 15
13 15.4.2024 01:00 997,7 1 0 62 0 0 18 15,3 273 15
14 15.4.2024 00:30 997,9 1 0 63 0 0 18,3 15,5 282 12
15 15.4.2024 00:00 998,1 3 0 59 0 0 18,5 16,6 254 12
16 14.4.2024 23:30 998,3 2 0 53 0 0 18,8 17,9 239 13
17 14.4.2024 23:00 998,4 1 0 55 0 0 19,1 17,2 249 16
18 14.4.2024 22:30 998,5 4 0 51 0 0 19,4 18,2 254 12
19 14.4.2024 22:00 998,7 2 0 46 0 0 19,7 19,5 254 11
20 14.4.2024 21:30 998,7 3 0 40 0 0 20 21,6 243 14
21 14.4.2024 21:00 998,5 2 0 37 0 0 20,3 22,5 232 14
22 14.4.2024 20:30 998,3 2 0 35 0 0 20,7 23,3 239 17
23 14.4.2024 20:00 998 9 0 34 0 0 21,1 24,5 247 19
24 14.4.2024 19:30 998,1 45 0 31 0 0 21,4 26,3 227 15
25 14.4.2024 19:00 998,3 118 0 33 0 0 21,6 27,2 237 13
26 14.4.2024 18:30 998,4 211 0 33 0 0 21,8 28,2 265 12
27 14.4.2024 18:00 998,5 307 0 29 0 0 22 29,2 270 17
28 14.4.2024 17:30 998,7 399 0 25 0 0 22,1 29,5 281 21
29 14.4.2024 17:00 998,9 483 0 24 0 0 22,1 30 277 26
30 14.4.2024 16:30 999,1 561 0 25 0 0 22 30,3 275 24
31 14.4.2024 16:00 999,3 622 0 28 0 0 21,8 30,4 276 21
32 14.4.2024 15:30 999,7 687 0 28 0 0 21,6 30,4 274 21
33 14.4.2024 15:00 1000,2 740 0 31 0 0 21,2 253 14
34 14.4.2024 14:30 1000,7 798 0 33 0 0 20,7 29,5 246 14
35 14.4.2024 14:00 1001,2 811 0 34 0 0 20,1 28,9 256 14
36 14.4.2024 13:30 1001,5 853 0 35 0 0 19,5 28,5 244 16
37 14.4.2024 13:00 1001,9 838 0 37 0 0 18,8 27,8 263 16
38 14.4.2024 12:30 1002,3 852 0 40 0 0 18,2 26,9 253 17
39 14.4.2024 12:00 1002,7 810 0 45 0 0 17,5 25,4 268 16
40 14.4.2024 11:30 1003,1 757 0 49 0 0 16,9 23,9 266 10
41 14.4.2024 11:00 1003,4 658 0 54 0 0 16,3 22,3 263 10
42 14.4.2024 10:30 1003,5 640 0 58 0 0 15,8 20,7 262 7
43 14.4.2024 10:00 1003,7 570 0 63 0 0 15,4 19 256 8
44 14.4.2024 09:30 1003,9 468 0 70 0 0 15,1 17 262 8
45 14.4.2024 09:00 1004,1 348 0 77 0 0 14,9 14,9 246 5
46 14.4.2024 08:30 1004,4 269 0 85 0 0 14,8 13 255 7